sensor_id;sensor_type;location;lat;lon;timestamp;pressure;altitude;pressure_sealevel;temperature;humidity
67052;BME280;53957;47.222;18.670;2023-03-14T05:12:03;99053.72;;;5.55;99.94
67052;BME280;53957;47.222;18.670;2023-03-14T05:15:08;99052.31;;;5.62;99.70
67052;BME280;53957;47.222;18.670;2023-03-14T05:18:11;99045.59;;;5.75;99.06
67052;BME280;53957;47.222;18.670;2023-03-14T05:21:15;99050.84;;;5.80;98.87
67052;BME280;53957;47.222;18.670;2023-03-14T05:24:18;99053.28;;;6.06;97.80
67052;BME280;53957;47.222;18.670;2023-03-14T05:27:22;99046.09;;;6.07;97.92
67052;BME280;53957;47.222;18.670;2023-03-14T05:30:27;99047.84;;;5.87;98.83
67052;BME280;53957;47.222;18.670;2023-03-14T05:33:33;99036.28;;;6.07;97.85
67052;BME280;53957;47.222;18.670;2023-03-14T05:36:36;99021.34;;;5.92;99.08
67052;BME280;53957;47.222;18.670;2023-03-14T05:39:41;99020.50;;;5.97;99.05
67052;BME280;53957;47.222;18.670;2023-03-14T05:42:44;99010.84;;;6.11;98.12
67052;BME280;53957;47.222;18.670;2023-03-14T05:45:48;99020.78;;;6.25;96.96
67052;BME280;53957;47.222;18.670;2023-03-14T05:48:52;99025.53;;;6.23;97.68
67052;BME280;53957;47.222;18.670;2023-03-14T05:51:56;99017.97;;;6.35;97.08
67052;BME280;53957;47.222;18.670;2023-03-14T05:55:16;99028.81;;;6.39;96.78
67052;BME280;53957;47.222;18.670;2023-03-14T05:58:20;99023.22;;;6.40;96.86
67052;BME280;53957;47.222;18.670;2023-03-14T06:01:27;99028.19;;;6.66;96.16
67052;BME280;53957;47.222;18.670;2023-03-14T06:04:52;99042.81;;;7.02;94.52
67052;BME280;53957;47.222;18.670;2023-03-14T06:07:55;99043.44;;;7.79;90.18
67052;BME280;53957;47.222;18.670;2023-03-14T06:10:58;99040.44;;;8.55;86.20
67052;BME280;53957;47.222;18.670;2023-03-14T06:14:02;99033.75;;;8.94;82.50
67052;BME280;53957;47.222;18.670;2023-03-14T06:17:05;99040.66;;;8.95;82.09
67052;BME280;53957;47.222;18.670;2023-03-14T06:20:12;99042.88;;;8.65;83.90
67052;BME280;53957;47.222;18.670;2023-03-14T06:23:35;99031.59;;;8.96;82.31
67052;BME280;53957;47.222;18.670;2023-03-14T06:26:38;99027.50;;;9.13;82.18
67052;BME280;53957;47.222;18.670;2023-03-14T06:29:43;99025.19;;;9.20;81.29
67052;BME280;53957;47.222;18.670;2023-03-14T06:32:46;99035.09;;;9.06;81.64
67052;BME280;53957;47.222;18.670;2023-03-14T06:35:49;99039.66;;;9.28;81.48
67052;BME280;53957;47.222;18.670;2023-03-14T06:38:52;99026.59;;;9.17;83.09
67052;BME280;53957;47.222;18.670;2023-03-14T06:41:57;99026.63;;;9.49;80.98
67052;BME280;53957;47.222;18.670;2023-03-14T06:45:00;99040.78;;;9.58;79.27
67052;BME280;53957;47.222;18.670;2023-03-14T06:48:04;99041.75;;;9.62;81.45
67052;BME280;53957;47.222;18.670;2023-03-14T06:51:09;99047.41;;;9.70;78.41
67052;BME280;53957;47.222;18.670;2023-03-14T06:54:13;99037.50;;;9.61;79.20
67052;BME280;53957;47.222;18.670;2023-03-14T06:57:16;99050.78;;;9.84;80.14
67052;BME280;53957;47.222;18.670;2023-03-14T07:00:20;99040.03;;;10.38;77.49
67052;BME280;53957;47.222;18.670;2023-03-14T07:03:23;99047.78;;;10.92;74.79
67052;BME280;53957;47.222;18.670;2023-03-14T07:06:28;99044.81;;;11.11;74.04
67052;BME280;53957;47.222;18.670;2023-03-14T07:09:34;99035.56;;;11.83;69.78
67052;BME280;53957;47.222;18.670;2023-03-14T07:12:39;99032.75;;;11.88;70.57
67052;BME280;53957;47.222;18.670;2023-03-14T07:15:42;99040.78;;;12.27;69.07
67052;BME280;53957;47.222;18.670;2023-03-14T07:18:45;99044.16;;;12.66;67.04
67052;BME280;53957;47.222;18.670;2023-03-14T07:21:50;99048.50;;;13.55;62.30
67052;BME280;53957;47.222;18.670;2023-03-14T07:24:55;99047.22;;;13.98;56.89
67052;BME280;53957;47.222;18.670;2023-03-14T07:28:08;99049.69;;;14.28;54.39
67052;BME280;53957;47.222;18.670;2023-03-14T07:31:12;99043.75;;;14.47;52.80
67052;BME280;53957;47.222;18.670;2023-03-14T07:34:16;99051.22;;;13.80;57.79
67052;BME280;53957;47.222;18.670;2023-03-14T07:37:20;99045.12;;;13.46;59.17
67052;BME280;53957;47.222;18.670;2023-03-14T07:40:23;99042.53;;;13.49;59.91
67052;BME280;53957;47.222;18.670;2023-03-14T07:43:27;99052.12;;;13.38;59.67
67052;BME280;53957;47.222;18.670;2023-03-14T07:46:33;99033.94;;;13.44;59.42
67052;BME280;53957;47.222;18.670;2023-03-14T07:49:36;99029.97;;;13.62;59.83
67052;BME280;53957;47.222;18.670;2023-03-14T07:52:39;99034.13;;;13.72;60.34
67052;BME280;53957;47.222;18.670;2023-03-14T07:55:43;99032.03;;;13.90;59.86
67052;BME280;53957;47.222;18.670;2023-03-14T07:58:46;99014.72;;;14.00;59.77
67052;BME280;53957;47.222;18.670;2023-03-14T08:01:49;99011.94;;;14.09;57.57
67052;BME280;53957;47.222;18.670;2023-03-14T08:05:12;98996.38;;;14.39;58.26
67052;BME280;53957;47.222;18.670;2023-03-14T08:08:15;98985.16;;;15.03;53.54
67052;BME280;53957;47.222;18.670;2023-03-14T16:23:54;98713.59;;;14.40;81.30
67052;BME280;53957;47.222;18.670;2023-03-14T16:26:58;98730.28;;;14.17;84.73
67052;BME280;53957;47.222;18.670;2023-03-14T16:30:03;98752.41;;;14.14;85.90
67052;BME280;53957;47.222;18.670;2023-03-14T16:33:10;98770.69;;;14.25;86.06
67052;BME280;53957;47.222;18.670;2023-03-14T16:36:16;98784.22;;;14.16;86.92
67052;BME280;53957;47.222;18.670;2023-03-14T16:39:19;98796.13;;;14.03;87.62
67052;BME280;53957;47.222;18.670;2023-03-14T16:42:45;98798.94;;;13.94;89.25
67052;BME280;53957;47.222;18.670;2023-03-14T16:46:14;98793.16;;;13.92;90.35
67052;BME280;53957;47.222;18.670;2023-03-14T16:49:26;98795.53;;;13.68;93.97
67052;BME280;53957;47.222;18.670;2023-03-14T16:52:29;98800.34;;;13.63;97.70
67052;BME280;53957;47.222;18.670;2023-03-14T16:55:32;98805.50;;;13.43;100.00
67052;BME280;53957;47.222;18.670;2023-03-14T16:58:36;98806.63;;;13.42;100.00
67052;BME280;53957;47.222;18.670;2023-03-14T17:01:59;98798.88;;;12.91;100.00
67052;BME280;53957;47.222;18.670;2023-03-14T17:05:02;98807.56;;;12.76;100.00
67052;BME280;53957;47.222;18.670;2023-03-14T17:08:05;98806.03;;;12.87;100.00
67052;BME280;53957;47.222;18.670;2023-03-14T17:11:10;98814.56;;;12.68;100.00
67052;BME280;53957;47.222;18.670;2023-03-14T17:14:15;98822.03;;;12.62;100.00
67052;BME280;53957;47.222;18.670;2023-03-14T17:17:18;98815.66;;;12.54;100.00
67052;BME280;53957;47.222;18.670;2023-03-14T17:20:40;98816.72;;;12.41;100.00
67052;BME280;53957;47.222;18.670;2023-03-14T17:23:44;98823.84;;;12.49;100.00
67052;BME280;53957;47.222;18.670;2023-03-14T17:26:47;98821.75;;;12.21;100.00
67052;BME280;53957;47.222;18.670;2023-03-14T17:29:51;98822.16;;;12.11;100.00
67052;BME280;53957;47.222;18.670;2023-03-14T17:32:54;98824.19;;;12.14;100.00
67052;BME280;53957;47.222;18.670;2023-03-14T17:36:20;98833.59;;;11.90;100.00
67052;BME280;53957;47.222;18.670;2023-03-14T17:39:46;98823.22;;;11.98;100.00
67052;BME280;53957;47.222;18.670;2023-03-14T17:43:09;98824.88;;;11.51;100.00
67052;BME280;53957;47.222;18.670;2023-03-14T17:46:13;98815.44;;;11.54;100.00
67052;BME280;53957;47.222;18.670;2023-03-14T17:49:38;98824.47;;;11.40;100.00
67052;BME280;53957;47.222;18.670;2023-03-14T17:52:43;98823.69;;;11.40;100.00
67052;BME280;53957;47.222;18.670;2023-03-14T17:55:50;98826.81;;;11.42;100.00
67052;BME280;53957;47.222;18.670;2023-03-14T17:58:55;98826.16;;;11.45;100.00
67052;BME280;53957;47.222;18.670;2023-03-14T18:01:59;98822.44;;;11.37;100.00
67052;BME280;53957;47.222;18.670;2023-03-14T18:05:03;98830.50;;;11.20;100.00
67052;BME280;53957;47.222;18.670;2023-03-14T18:08:11;98823.12;;;11.25;100.00
67052;BME280;53957;47.222;18.670;2023-03-14T18:11:15;98811.56;;;11.12;100.00
67052;BME280;53957;47.222;18.670;2023-03-14T18:14:18;98804.53;;;11.08;100.00
67052;BME280;53957;47.222;18.670;2023-03-14T18:17:21;98810.91;;;11.16;100.00
67052;BME280;53957;47.222;18.670;2023-03-14T18:20:29;98805.09;;;11.14;100.00
67052;BME280;53957;47.222;18.670;2023-03-14T18:23:33;98792.94;;;11.04;100.00
67052;BME280;53957;47.222;18.670;2023-03-14T18:26:36;98811.53;;;11.21;100.00
67052;BME280;53957;47.222;18.670;2023-03-14T18:29:40;98814.50;;;11.28;100.00
67052;BME280;53957;47.222;18.670;2023-03-14T18:32:43;98811.97;;;11.23;100.00
67052;BME280;53957;47.222;18.670;2023-03-14T18:35:47;98794.66;;;11.00;100.00
67052;BME280;53957;47.222;18.670;2023-03-14T18:38:55;98798.28;;;11.04;100.00
67052;BME280;53957;47.222;18.670;2023-03-14T18:41:58;98799.88;;;10.87;100.00
67052;BME280;53957;47.222;18.670;2023-03-14T18:45:01;98798.94;;;10.92;100.00
67052;BME280;53957;47.222;18.670;2023-03-14T18:48:05;98798.50;;;10.81;100.00
67052;BME280;53957;47.222;18.670;2023-03-14T18:51:12;98801.62;;;10.83;100.00
67052;BME280;53957;47.222;18.670;2023-03-14T18:54:17;98795.38;;;10.70;100.00
67052;BME280;53957;47.222;18.670;2023-03-14T18:57:23;98784.13;;;10.65;100.00
67052;BME280;53957;47.222;18.670;2023-03-14T19:00:36;98772.97;;;10.62;100.00
67052;BME280;53957;47.222;18.670;2023-03-14T19:03:39;98779.53;;;10.74;100.00
67052;BME280;53957;47.222;18.670;2023-03-14T19:06:42;98775.59;;;10.80;100.00
67052;BME280;53957;47.222;18.670;2023-03-14T19:09:45;98770.06;;;10.85;100.00
67052;BME280;53957;47.222;18.670;2023-03-14T19:12:52;98775.25;;;10.90;100.00
67052;BME280;53957;47.222;18.670;2023-03-14T19:16:02;98772.88;;;10.89;100.00
67052;BME280;53957;47.222;18.670;2023-03-14T19:19:10;98775.69;;;10.92;100.00
67052;BME280;53957;47.222;18.670;2023-03-14T19:22:13;98796.69;;;11.03;100.00
67052;BME280;53957;47.222;18.670;2023-03-14T19:25:16;98786.84;;;10.94;100.00
67052;BME280;53957;47.222;18.670;2023-03-14T19:28:20;98792.31;;;10.98;100.00
67052;BME280;53957;47.222;18.670;2023-03-14T19:31:28;98780.56;;;10.99;100.00
67052;BME280;53957;47.222;18.670;2023-03-14T19:34:31;98789.69;;;10.89;100.00
67052;BME280;53957;47.222;18.670;2023-03-14T19:37:34;98807.75;;;10.75;100.00
67052;BME280;53957;47.222;18.670;2023-03-14T19:40:38;98805.13;;;10.66;100.00
67052;BME280;53957;47.222;18.670;2023-03-14T19:43:42;98820.03;;;10.58;100.00
67052;BME280;53957;47.222;18.670;2023-03-14T19:50:13;98834.78;;;10.29;100.00
67052;BME280;53957;47.222;18.670;2023-03-14T19:53:16;98829.00;;;10.27;100.00
67052;BME280;53957;47.222;18.670;2023-03-14T19:56:19;98827.25;;;10.14;100.00
67052;BME280;53957;47.222;18.670;2023-03-14T19:59:23;98814.72;;;10.14;100.00
67052;BME280;53957;47.222;18.670;2023-03-14T20:02:26;98843.25;;;10.14;100.00
67052;BME280;53957;47.222;18.670;2023-03-14T20:05:31;98850.75;;;10.29;100.00
67052;BME280;53957;47.222;18.670;2023-03-14T20:08:34;98844.81;;;10.32;100.00
67052;BME280;53957;47.222;18.670;2023-03-14T20:11:37;98848.09;;;10.29;100.00
67052;BME280;53957;47.222;18.670;2023-03-14T20:14:42;98843.25;;;10.14;100.00
67052;BME280;53957;47.222;18.670;2023-03-14T20:17:47;98844.03;;;10.14;100.00
67052;BME280;53957;47.222;18.670;2023-03-14T20:20:55;98850.44;;;10.13;100.00
67052;BME280;53957;47.222;18.670;2023-03-14T20:23:59;98865.97;;;10.11;100.00
67052;BME280;53957;47.222;18.670;2023-03-14T20:27:06;98868.62;;;10.11;100.00
67052;BME280;53957;47.222;18.670;2023-03-14T20:30:20;98857.66;;;10.13;100.00
67052;BME280;53957;47.222;18.670;2023-03-14T20:33:24;98862.06;;;10.18;100.00
67052;BME280;53957;47.222;18.670;2023-03-14T20:36:27;98863.91;;;9.99;100.00
67052;BME280;53957;47.222;18.670;2023-03-14T20:39:30;98860.00;;;9.97;100.00
67052;BME280;53957;47.222;18.670;2023-03-14T20:42:45;98861.25;;;9.91;100.00
67052;BME280;53957;47.222;18.670;2023-03-14T20:45:55;98865.00;;;9.98;100.00
67052;BME280;53957;47.222;18.670;2023-03-14T20:48:59;98875.31;;;9.82;100.00
67052;BME280;53957;47.222;18.670;2023-03-14T20:52:04;98882.06;;;9.80;100.00
67052;BME280;53957;47.222;18.670;2023-03-14T20:55:08;98880.47;;;9.79;100.00
67052;BME280;53957;47.222;18.670;2023-03-14T20:58:11;98882.53;;;9.82;100.00
67052;BME280;53957;47.222;18.670;2023-03-14T21:01:15;98872.37;;;9.84;100.00
67052;BME280;53957;47.222;18.670;2023-03-14T21:04:18;98883.16;;;9.88;100.00
67052;BME280;53957;47.222;18.670;2023-03-14T21:07:41;98877.81;;;9.88;100.00
67052;BME280;53957;47.222;18.670;2023-03-14T21:10:48;98873.47;;;9.92;100.00
67052;BME280;53957;47.222;18.670;2023-03-14T21:13:51;98873.16;;;9.93;100.00
67052;BME280;53957;47.222;18.670;2023-03-14T21:16:54;98877.06;;;9.87;100.00
67052;BME280;53957;47.222;18.670;2023-03-14T21:20:10;98878.63;;;9.88;100.00
67052;BME280;53957;47.222;18.670;2023-03-14T21:23:14;98876.56;;;9.85;100.00
67052;BME280;53957;47.222;18.670;2023-03-14T21:26:22;98893.66;;;9.84;100.00
67052;BME280;53957;47.222;18.670;2023-03-14T21:29:25;98896.16;;;9.80;100.00
67052;BME280;53957;47.222;18.670;2023-03-14T21:32:28;98904.53;;;10.05;100.00
67052;BME280;53957;47.222;18.670;2023-03-14T21:35:33;98905.94;;;10.03;100.00
67052;BME280;53957;47.222;18.670;2023-03-14T21:38:40;98894.31;;;9.98;100.00
67052;BME280;53957;47.222;18.670;2023-03-14T21:41:43;98901.03;;;9.87;100.00
67052;BME280;53957;47.222;18.670;2023-03-14T21:44:46;98901.66;;;9.84;100.00
67052;BME280;53957;47.222;18.670;2023-03-14T21:47:51;98906.03;;;9.89;100.00
67052;BME280;53957;47.222;18.670;2023-03-14T21:50:56;98909.66;;;9.84;100.00
67052;BME280;53957;47.222;18.670;2023-03-14T21:53:59;98903.69;;;9.87;100.00
67052;BME280;53957;47.222;18.670;2023-03-14T21:57:03;98905.88;;;9.85;100.00
67052;BME280;53957;47.222;18.670;2023-03-14T22:00:07;98902.00;;;10.00;100.00
67052;BME280;53957;47.222;18.670;2023-03-14T22:03:17;98918.44;;;9.93;100.00
67052;BME280;53957;47.222;18.670;2023-03-14T22:06:20;98921.28;;;10.06;100.00
67052;BME280;53957;47.222;18.670;2023-03-14T22:09:24;98934.41;;;9.93;100.00
67052;BME280;53957;47.222;18.670;2023-03-14T22:12:26;98925.94;;;9.91;100.00
67052;BME280;53957;47.222;18.670;2023-03-14T22:15:29;98930.12;;;9.75;100.00
67052;BME280;53957;47.222;18.670;2023-03-14T22:18:33;98934.50;;;9.71;100.00
67052;BME280;53957;47.222;18.670;2023-03-14T22:21:36;98947.88;;;9.88;100.00
67052;BME280;53957;47.222;18.670;2023-03-14T22:24:48;98956.91;;;9.78;100.00
67052;BME280;53957;47.222;18.670;2023-03-14T22:27:51;98955.22;;;9.82;100.00
67052;BME280;53957;47.222;18.670;2023-03-14T22:30:57;98961.34;;;9.92;100.00
67052;BME280;53957;47.222;18.670;2023-03-14T22:34:00;98973.88;;;9.91;100.00
67052;BME280;53957;47.222;18.670;2023-03-14T22:37:05;98975.00;;;9.90;100.00
67052;BME280;53957;47.222;18.670;2023-03-14T22:40:09;98961.78;;;9.85;100.00
67052;BME280;53957;47.222;18.670;2023-03-14T22:43:12;98967.53;;;9.70;100.00
67052;BME280;53957;47.222;18.670;2023-03-14T22:46:15;98956.37;;;9.59;100.00
67052;BME280;53957;47.222;18.670;2023-03-14T22:49:18;98945.72;;;9.59;100.00
67052;BME280;53957;47.222;18.670;2023-03-14T22:52:21;98948.66;;;9.48;100.00
67052;BME280;53957;47.222;18.670;2023-03-14T22:55:24;98952.09;;;9.49;100.00
67052;BME280;53957;47.222;18.670;2023-03-14T22:58:28;98937.34;;;9.43;100.00
67052;BME280;53957;47.222;18.670;2023-03-14T23:01:31;98942.31;;;9.35;100.00
67052;BME280;53957;47.222;18.670;2023-03-14T23:04:35;98948.44;;;9.36;100.00
67052;BME280;53957;47.222;18.670;2023-03-14T23:07:38;98955.16;;;9.33;100.00
67052;BME280;53957;47.222;18.670;2023-03-14T23:10:41;98966.03;;;9.23;100.00
67052;BME280;53957;47.222;18.670;2023-03-14T23:13:44;98970.59;;;9.23;100.00
67052;BME280;53957;47.222;18.670;2023-03-14T23:16:50;98981.06;;;9.19;100.00
67052;BME280;53957;47.222;18.670;2023-03-14T23:19:53;98976.94;;;9.13;100.00
67052;BME280;53957;47.222;18.670;2023-03-14T23:22:56;98972.72;;;9.12;100.00
67052;BME280;53957;47.222;18.670;2023-03-14T23:26:00;98967.25;;;9.17;100.00
67052;BME280;53957;47.222;18.670;2023-03-14T23:29:05;98979.13;;;9.11;100.00
67052;BME280;53957;47.222;18.670;2023-03-14T23:32:08;98989.38;;;9.03;100.00
67052;BME280;53957;47.222;18.670;2023-03-14T23:35:12;98990.19;;;9.04;100.00
67052;BME280;53957;47.222;18.670;2023-03-14T23:38:16;98991.53;;;8.93;100.00
67052;BME280;53957;47.222;18.670;2023-03-14T23:41:20;98995.16;;;8.97;100.00
67052;BME280;53957;47.222;18.670;2023-03-14T23:44:23;99002.94;;;8.93;100.00
67052;BME280;53957;47.222;18.670;2023-03-14T23:47:28;99005.91;;;8.92;100.00
67052;BME280;53957;47.222;18.670;2023-03-14T23:50:34;99012.31;;;8.91;100.00
67052;BME280;53957;47.222;18.670;2023-03-14T23:53:38;99011.44;;;8.81;100.00
67052;BME280;53957;47.222;18.670;2023-03-14T23:56:41;99022.12;;;8.90;100.00
